Ketchikan International Airport Ketchikan US
ICAO: PAKT
IATA: KTN
Category: Medium
Scheduled Services:

Elevation: 89 ft
TransAlt. 18000 ft.

Airport Communications:
ATIS:119.9
ANCHORAGE CNTR:118.5
CTAF:123.6
RDO:123.6
UNICOM:122.95

PAKT Zoom In..

Runways:

(A) RW 11 length 7500 ft width 150 ft
ILS 109.30 / hdg 115

(B) RW 29 length 7500 ft width 150 ft
---- / hdg 295

Location; PAKT
Day. 17 / Time. 06.53 Zulu
* Altimeter: 30.13
* Temperature: 14° c. 57.2°f.
* Wind from: PAK° Speed T kn.
Dewpoint: 13° c.
Visibility: 10 Statute Miles.
Clouds: Overcast 400 ft.

PAKT 170653Z AUTO 14007KT 10SM OVC004 14/13 A3013 RMK AO2 SLP203 T01390128 TSNO


Wind From PAK°
Speed T kn.

 
 
jpsmedia.com for Web Design worldairports.se 2018   terms of use